createdAt,value
2023-05-19T00:00:22.054Z,2.13
2023-05-19T00:01:25.130Z,1.50
2023-05-19T00:02:27.815Z,1.77
2023-05-19T00:03:31.845Z,2.25
2023-05-19T00:04:35.579Z,1.40
2023-05-19T00:05:45.696Z,1.73
2023-05-19T00:06:51.429Z,1.83
2023-05-19T00:07:56.377Z,1.83
2023-05-19T00:09:01.382Z,2.00
2023-05-19T00:10:04.055Z,1.70
2023-05-19T00:11:06.963Z,1.92
2023-05-19T00:12:11.081Z,1.83
2023-05-19T00:13:13.528Z,1.60
2023-05-19T00:14:16.203Z,1.80
2023-05-19T00:15:18.714Z,1.70
2023-05-19T00:16:22.868Z,1.60
2023-05-19T00:17:25.514Z,1.60
2023-05-19T00:18:29.956Z,1.55
2023-05-19T00:19:32.474Z,1.67
2023-05-19T00:20:35.030Z,1.70
2023-05-19T00:21:39.048Z,1.50
2023-05-19T00:22:44.199Z,1.57
2023-05-19T00:23:46.974Z,1.60
2023-05-19T00:24:49.327Z,1.65
2023-05-19T00:25:52.364Z,1.60
2023-05-19T00:26:54.582Z,1.50
2023-05-19T00:27:56.790Z,1.75
2023-05-19T00:28:59.111Z,1.42
2023-05-19T00:30:01.278Z,1.50
2023-05-19T00:31:05.487Z,2.00
2023-05-19T00:32:08.504Z,1.50
2023-05-19T00:33:10.864Z,1.80
2023-05-19T00:34:13.157Z,1.60
2023-05-19T00:35:15.893Z,1.55
2023-05-19T00:36:18.100Z,2.25
2023-05-19T00:37:20.733Z,1.88
2023-05-19T00:38:23.148Z,1.80
2023-05-19T00:39:25.427Z,1.67
2023-05-19T00:40:29.017Z,1.50
2023-05-19T00:41:31.244Z,1.50
2023-05-19T00:42:34.057Z,1.70
2023-05-19T00:43:36.426Z,1.97
2023-05-19T00:44:41.321Z,1.85
2023-05-19T00:45:43.873Z,1.60
2023-05-19T00:46:46.301Z,1.80
2023-05-19T00:47:49.689Z,1.40
2023-05-19T00:48:52.176Z,2.00
2023-05-19T00:49:54.339Z,1.80
2023-05-19T00:51:02.514Z,1.60
2023-05-19T00:52:07.317Z,1.65
2023-05-19T00:53:09.903Z,1.60
2023-05-19T00:54:12.127Z,1.80
2023-05-19T00:55:15.450Z,1.80
2023-05-19T00:56:19.224Z,1.60
2023-05-19T00:57:22.238Z,1.55
2023-05-19T00:58:29.325Z,1.40
2023-05-19T00:59:31.663Z,1.50
2023-05-19T01:00:35.128Z,1.67
2023-05-19T01:01:38.004Z,1.40
2023-05-19T01:02:41.691Z,1.38
2023-05-19T01:03:44.757Z,1.48
2023-05-19T01:04:47.720Z,1.63
2023-05-19T01:05:50.034Z,1.60
2023-05-19T01:06:55.218Z,1.70
2023-05-19T01:07:57.828Z,1.67
2023-05-19T01:09:00.379Z,1.50
2023-05-19T01:10:03.848Z,1.40
2023-05-19T01:11:07.267Z,1.48
2023-05-19T01:12:09.862Z,1.40
2023-05-19T01:13:12.351Z,1.80
2023-05-19T01:14:15.752Z,1.75
2023-05-19T01:15:18.080Z,2.00
2023-05-19T01:16:38.829Z,2.00
2023-05-19T01:17:44.997Z,2.10
2023-05-19T01:19:25.673Z,2.00
2023-05-19T01:20:55.914Z,1.90
2023-05-19T01:22:38.179Z,2.10
2023-05-19T01:23:49.497Z,2.13
2023-05-19T01:25:13.352Z,2.00
2023-05-19T01:26:38.279Z,2.15
2023-05-19T01:28:24.446Z,1.95
2023-05-19T01:29:55.203Z,2.33
2023-05-19T01:31:00.361Z,2.20
2023-05-19T01:32:06.994Z,2.38
2023-05-19T01:33:14.565Z,2.40
2023-05-19T01:34:18.639Z,2.55
2023-05-19T01:35:25.140Z,2.20
2023-05-19T01:36:28.937Z,2.22
2023-05-19T01:37:32.124Z,2.20
2023-05-19T01:38:38.203Z,2.17
2023-05-19T01:39:41.534Z,2.00
2023-05-19T01:40:45.403Z,1.87
2023-05-19T01:41:49.349Z,2.00
2023-05-19T01:42:55.600Z,2.08
2023-05-19T01:44:01.048Z,2.20
2023-05-19T01:45:10.380Z,2.20
2023-05-19T01:46:13.274Z,2.70
2023-05-19T01:47:16.020Z,2.10
2023-05-19T01:48:19.130Z,2.30
2023-05-19T01:49:21.332Z,2.40
2023-05-19T01:50:24.116Z,2.28
2023-05-19T01:51:26.392Z,2.23
2023-05-19T01:52:28.636Z,2.50
2023-05-19T01:53:31.126Z,2.10
2023-05-19T01:54:35.440Z,2.05
2023-05-19T01:55:48.414Z,2.17
2023-05-19T01:57:02.006Z,2.05
2023-05-19T01:58:39.695Z,2.20
2023-05-19T01:59:44.659Z,2.00
2023-05-19T02:01:25.973Z,2.60
2023-05-19T02:02:43.638Z,2.30
2023-05-19T02:04:15.487Z,2.20
2023-05-19T02:05:36.419Z,2.25
2023-05-19T02:07:02.428Z,2.08
2023-05-19T02:08:52.388Z,2.15
2023-05-19T02:10:04.639Z,2.13
2023-05-19T02:11:25.943Z,2.17
2023-05-19T02:12:40.228Z,2.22
2023-05-19T02:13:45.070Z,2.10
2023-05-19T02:15:11.262Z,2.20
2023-05-19T02:16:14.702Z,2.33
2023-05-19T02:17:18.623Z,1.90
2023-05-19T02:18:22.468Z,1.90
2023-05-19T02:19:30.346Z,1.83
2023-05-19T02:20:33.169Z,1.65
2023-05-19T02:21:35.595Z,1.63
2023-05-19T02:22:38.023Z,1.70
2023-05-19T02:23:43.861Z,1.80
2023-05-19T02:24:47.802Z,1.75
2023-05-19T02:25:50.018Z,1.70
2023-05-19T02:26:53.862Z,1.60
2023-05-19T02:27:56.009Z,1.70
2023-05-19T02:28:58.204Z,1.70
2023-05-19T02:30:00.439Z,1.75
2023-05-19T02:31:05.409Z,1.73
2023-05-19T02:32:08.057Z,1.77
2023-05-19T02:33:11.520Z,1.70
2023-05-19T02:34:13.904Z,1.80
2023-05-19T02:35:16.291Z,1.73
2023-05-19T02:36:19.261Z,2.00
2023-05-19T02:37:24.102Z,1.80
2023-05-19T02:38:26.823Z,1.93
2023-05-19T02:39:31.260Z,1.70
2023-05-19T02:40:33.613Z,1.80
2023-05-19T02:41:35.989Z,1.70
2023-05-19T02:42:38.213Z,1.85
2023-05-19T02:43:40.631Z,1.83
2023-05-19T02:44:45.701Z,1.98
2023-05-19T02:45:47.892Z,1.85
2023-05-19T02:46:50.150Z,1.73
2023-05-19T02:47:52.429Z,1.70
2023-05-19T02:48:54.777Z,1.83
2023-05-19T02:49:57.069Z,2.00
2023-05-19T02:50:59.109Z,2.28
2023-05-19T02:52:05.625Z,2.33
2023-05-19T02:53:07.968Z,2.35
2023-05-19T02:54:10.466Z,2.20
2023-05-19T02:55:17.186Z,2.30
2023-05-19T02:56:19.523Z,2.30
2023-05-19T02:57:22.010Z,2.15
2023-05-19T02:58:24.048Z,2.25
2023-05-19T02:59:26.310Z,2.60
2023-05-19T03:00:28.565Z,2.15
2023-05-19T03:01:32.795Z,2.20
2023-05-19T03:02:35.620Z,1.85
2023-05-19T03:03:38.121Z,1.92
2023-05-19T03:04:42.546Z,2.03
2023-05-19T03:05:44.811Z,2.20
2023-05-19T03:06:47.283Z,1.80
2023-05-19T03:07:49.480Z,2.20
2023-05-19T03:08:51.769Z,1.90
2023-05-19T03:09:53.891Z,2.07
2023-05-19T03:10:56.222Z,2.00
2023-05-19T03:12:04.110Z,1.80
2023-05-19T03:13:06.464Z,1.80
2023-05-19T03:14:12.131Z,1.50
2023-05-19T03:15:15.242Z,1.60
2023-05-19T03:16:17.581Z,1.70
2023-05-19T03:17:19.868Z,1.80
2023-05-19T03:18:24.729Z,1.88
2023-05-19T03:19:27.682Z,1.85
2023-05-19T03:20:30.914Z,1.80
2023-05-19T03:21:34.565Z,1.70
2023-05-19T03:22:37.218Z,1.80
2023-05-19T03:23:39.330Z,1.65
2023-05-19T03:24:41.532Z,1.80
2023-05-19T03:25:43.593Z,1.80
2023-05-19T03:26:46.060Z,1.70
2023-05-19T03:27:48.461Z,1.70
2023-05-19T03:28:50.841Z,1.65
2023-05-19T03:29:53.929Z,1.50
2023-05-19T03:30:56.784Z,1.63
2023-05-19T03:32:02.793Z,1.70
2023-05-19T03:33:05.545Z,1.60
2023-05-19T03:34:07.857Z,1.60
2023-05-19T03:35:10.182Z,1.73
2023-05-19T03:36:12.821Z,1.60
2023-05-19T03:37:15.476Z,1.70
2023-05-19T03:38:17.675Z,1.58
2023-05-19T03:39:26.832Z,1.40
2023-05-19T03:40:29.112Z,1.60
2023-05-19T03:41:37.931Z,1.60
2023-05-19T03:42:40.156Z,1.60
2023-05-19T03:43:42.546Z,1.50
2023-05-19T03:44:45.701Z,1.50
2023-05-19T03:45:48.401Z,1.50
2023-05-19T03:47:11.141Z,1.80
2023-05-19T03:48:51.967Z,1.60
2023-05-19T03:50:00.066Z,1.70
2023-05-19T03:51:37.649Z,1.60
2023-05-19T03:52:56.473Z,1.63
2023-05-19T03:54:04.674Z,1.73
2023-05-19T03:55:07.897Z,1.65
2023-05-19T03:56:13.702Z,2.05
2023-05-19T03:57:16.283Z,1.92
2023-05-19T03:58:19.018Z,1.80
2023-05-19T03:59:21.315Z,1.70
2023-05-19T04:00:23.957Z,1.60
2023-05-19T04:01:26.285Z,1.70
2023-05-19T04:02:28.624Z,1.80
2023-05-19T04:03:31.126Z,1.80
2023-05-19T04:04:33.841Z,1.90
2023-05-19T04:05:36.087Z,1.50
2023-05-19T04:06:38.295Z,1.70
2023-05-19T04:07:40.639Z,1.58
2023-05-19T04:08:44.379Z,1.65
2023-05-19T04:09:48.756Z,1.55
2023-05-19T04:10:50.812Z,1.80
2023-05-19T04:11:53.019Z,1.70
2023-05-19T04:12:55.219Z,1.50
2023-05-19T04:13:57.314Z,1.52
2023-05-19T04:14:59.731Z,1.50
2023-05-19T04:16:02.228Z,1.50
2023-05-19T04:17:04.593Z,1.55
2023-05-19T04:18:06.979Z,1.80
2023-05-19T04:19:09.420Z,1.50
2023-05-19T04:20:12.230Z,1.45
2023-05-19T04:21:14.335Z,1.67
2023-05-19T04:22:16.772Z,1.40
2023-05-19T04:23:19.005Z,1.40
2023-05-19T04:24:21.268Z,1.40
2023-05-19T04:25:25.277Z,1.40
2023-05-19T04:26:31.223Z,1.50
2023-05-19T04:27:36.705Z,1.40
2023-05-19T04:28:41.840Z,1.60
2023-05-19T04:29:46.164Z,1.30
2023-05-19T04:30:48.431Z,1.20
2023-05-19T04:31:50.674Z,1.40
2023-05-19T04:32:53.066Z,1.40
2023-05-19T04:33:55.449Z,1.40
2023-05-19T04:34:59.034Z,1.50
2023-05-19T04:36:06.085Z,1.70
2023-05-19T04:37:10.173Z,1.48
2023-05-19T04:38:13.059Z,1.50
2023-05-19T04:39:16.386Z,1.40
2023-05-19T04:40:22.067Z,1.55
2023-05-19T04:41:24.321Z,1.38
2023-05-19T04:42:30.779Z,1.40
2023-05-19T04:43:35.300Z,1.23
2023-05-19T04:44:40.351Z,1.58
2023-05-19T04:45:42.887Z,1.20
2023-05-19T04:46:46.950Z,1.30
2023-05-19T04:47:49.530Z,1.10
2023-05-19T04:48:53.305Z,1.10
2023-05-19T04:49:55.615Z,1.40
2023-05-19T04:50:57.964Z,1.33
2023-05-19T04:52:00.582Z,1.27
2023-05-19T04:53:05.342Z,1.30
2023-05-19T04:54:08.578Z,1.40
2023-05-19T04:55:11.484Z,1.30
2023-05-19T04:56:15.461Z,1.40
2023-05-19T04:57:18.855Z,1.33
2023-05-19T04:58:21.187Z,1.25
2023-05-19T04:59:24.229Z,1.20
2023-05-19T05:00:26.865Z,1.27
2023-05-19T05:01:43.283Z,1.40
2023-05-19T05:02:49.217Z,1.23
2023-05-19T05:03:55.550Z,1.27
2023-05-19T05:04:58.084Z,1.48
2023-05-19T05:06:00.547Z,1.35
2023-05-19T05:07:03.070Z,1.23
2023-05-19T05:08:24.073Z,1.17
2023-05-19T05:09:26.348Z,1.30
2023-05-19T05:10:29.544Z,1.42
2023-05-19T05:11:31.950Z,1.48
2023-05-19T05:12:35.422Z,1.13
2023-05-19T05:13:38.044Z,1.40
2023-05-19T05:14:40.689Z,1.38
2023-05-19T05:15:44.271Z,1.30
2023-05-19T05:16:47.317Z,1.60
2023-05-19T05:17:54.308Z,1.23
2023-05-19T05:18:57.896Z,1.30
2023-05-19T05:20:01.066Z,1.50
2023-05-19T05:21:04.486Z,1.38
2023-05-19T05:22:08.575Z,1.17
2023-05-19T05:23:14.775Z,1.40
2023-05-19T05:24:18.942Z,1.17
2023-05-19T05:25:26.517Z,1.65
2023-05-19T05:26:34.410Z,1.25
2023-05-19T05:27:36.975Z,1.50
2023-05-19T05:28:41.982Z,1.25
2023-05-19T05:29:44.321Z,1.53
2023-05-19T05:30:46.634Z,1.38
2023-05-19T05:31:50.188Z,1.35
2023-05-19T05:32:52.671Z,1.30
2023-05-19T05:34:08.585Z,1.30
2023-05-19T05:35:12.194Z,1.38
2023-05-19T05:36:15.116Z,1.40
2023-05-19T05:37:17.510Z,1.20
2023-05-19T05:38:19.615Z,1.70
2023-05-19T05:39:21.848Z,1.38
2023-05-19T05:40:24.709Z,1.67
2023-05-19T05:41:28.027Z,1.58
2023-05-19T05:42:30.230Z,1.70
2023-05-19T05:43:32.718Z,1.60
2023-05-19T05:44:38.106Z,1.50
2023-05-19T05:45:41.364Z,1.90
2023-05-19T05:46:44.645Z,1.80
2023-05-19T05:47:47.040Z,2.00
2023-05-19T05:48:49.487Z,1.88
2023-05-19T05:49:53.593Z,1.90
2023-05-19T05:50:57.953Z,2.00
2023-05-19T05:52:06.235Z,1.95
2023-05-19T05:53:20.633Z,2.17
2023-05-19T05:54:26.002Z,2.30
2023-05-19T05:55:28.857Z,1.70
2023-05-19T05:56:33.852Z,2.05
2023-05-19T05:57:36.622Z,2.05
2023-05-19T05:58:40.870Z,1.92
2023-05-19T05:59:45.498Z,2.13
2023-05-19T06:00:49.511Z,1.77
2023-05-19T06:01:52.093Z,2.10
2023-05-19T06:02:55.250Z,1.70
2023-05-19T06:03:57.390Z,2.00
2023-05-19T06:04:59.832Z,2.25
2023-05-19T06:06:02.149Z,2.72
2023-05-19T06:07:04.379Z,2.70
2023-05-19T06:08:10.069Z,2.40
2023-05-19T06:09:12.479Z,2.30
2023-05-19T06:10:15.023Z,2.58
2023-05-19T06:11:17.358Z,2.47
2023-05-19T06:12:19.428Z,2.20
2023-05-19T06:13:26.013Z,2.30
2023-05-19T06:14:28.093Z,1.95
2023-05-19T06:16:01.685Z,1.83
2023-05-19T06:17:13.019Z,2.22
2023-05-19T06:18:15.104Z,1.95
2023-05-19T06:19:18.420Z,2.33
2023-05-19T06:20:20.671Z,2.00
2023-05-19T06:21:22.822Z,1.98
2023-05-19T06:22:25.074Z,2.00
2023-05-19T06:23:29.291Z,1.90
2023-05-19T06:24:31.378Z,1.90
2023-05-19T06:25:33.745Z,1.88
2023-05-19T06:26:36.065Z,1.60
2023-05-19T06:27:38.632Z,1.70
2023-05-19T06:28:40.797Z,1.90
2023-05-19T06:29:42.943Z,1.75
2023-05-19T06:30:45.363Z,2.10
2023-05-19T06:32:13.749Z,2.05
2023-05-19T06:33:16.096Z,1.77
2023-05-19T06:34:18.441Z,1.30
2023-05-19T06:35:22.310Z,1.55
2023-05-19T06:36:24.552Z,1.40
2023-05-19T06:37:29.209Z,1.50
2023-05-19T06:38:32.539Z,1.40
2023-05-19T06:39:35.206Z,1.60
2023-05-19T06:40:38.593Z,1.60
2023-05-19T06:41:40.670Z,1.90
2023-05-19T06:42:43.314Z,1.40
2023-05-19T06:44:09.897Z,1.40
2023-05-19T06:45:12.129Z,1.60
2023-05-19T06:46:15.066Z,1.70
2023-05-19T06:47:19.327Z,1.63
2023-05-19T06:48:21.462Z,1.42
2023-05-19T06:49:24.152Z,1.73
2023-05-19T06:50:26.509Z,1.30
2023-05-19T06:51:29.516Z,1.88
2023-05-19T06:52:32.269Z,1.38
2023-05-19T06:53:36.206Z,1.40
2023-05-19T06:54:42.504Z,1.30
2023-05-19T06:55:58.008Z,1.50
2023-05-19T06:57:02.812Z,1.38
2023-05-19T06:58:05.110Z,1.50
2023-05-19T06:59:07.163Z,1.40
2023-05-19T07:00:14.460Z,1.40
2023-05-19T07:01:21.390Z,1.50
2023-05-19T07:02:28.958Z,1.80
2023-05-19T07:03:31.336Z,1.77
2023-05-19T07:04:34.083Z,1.50
2023-05-19T07:05:36.545Z,1.50
2023-05-19T07:06:38.552Z,1.57
2023-05-19T07:07:41.827Z,1.80
2023-05-19T07:08:48.201Z,1.65
2023-05-19T07:09:51.938Z,1.60
2023-05-19T07:10:56.118Z,1.38
2023-05-19T07:11:58.416Z,1.40
2023-05-19T07:13:00.580Z,1.60
2023-05-19T07:14:06.429Z,1.50
2023-05-19T07:15:08.822Z,1.40
2023-05-19T07:16:11.314Z,1.67
2023-05-19T07:17:14.883Z,1.53
2023-05-19T07:18:19.986Z,1.60
2023-05-19T07:19:22.725Z,1.60
2023-05-19T07:20:25.260Z,1.48
2023-05-19T07:21:27.425Z,1.45
2023-05-19T07:22:30.232Z,1.40
2023-05-19T07:23:32.322Z,1.90
2023-05-19T07:24:34.419Z,1.60
2023-05-19T07:25:36.413Z,1.70
2023-05-19T07:26:38.412Z,1.58
2023-05-19T07:27:40.547Z,2.10
2023-05-19T07:28:43.560Z,1.80
2023-05-19T07:29:45.689Z,1.60
2023-05-19T07:30:48.298Z,1.60
2023-05-19T07:31:54.241Z,1.60
2023-05-19T07:32:56.853Z,1.70
2023-05-19T07:34:00.314Z,1.65
2023-05-19T07:35:02.628Z,1.85
2023-05-19T07:36:04.878Z,1.80
2023-05-19T07:37:07.020Z,1.95
2023-05-19T07:38:08.981Z,1.70
2023-05-19T07:39:11.302Z,1.70
2023-05-19T07:40:13.719Z,1.80
2023-05-19T07:41:15.973Z,2.13
2023-05-19T07:42:18.036Z,1.73
2023-05-19T07:43:20.060Z,1.83
2023-05-19T07:44:22.466Z,2.00
2023-05-19T07:45:24.471Z,2.00
2023-05-19T07:46:26.673Z,2.00
2023-05-19T07:47:28.902Z,2.13
2023-05-19T07:48:31.030Z,2.10
2023-05-19T07:49:33.086Z,2.15
2023-05-19T07:50:35.148Z,2.20
2023-05-19T07:51:37.194Z,1.85
2023-05-19T07:52:39.279Z,2.33
2023-05-19T07:53:41.374Z,2.00
2023-05-19T07:54:43.396Z,1.70
2023-05-19T07:55:46.941Z,1.67
2023-05-19T07:56:49.024Z,1.50
2023-05-19T07:57:51.468Z,1.70
2023-05-19T07:58:53.585Z,1.80
2023-05-19T07:59:55.884Z,1.80
2023-05-19T08:00:59.061Z,2.05
2023-05-19T08:02:01.296Z,1.98
2023-05-19T08:03:03.753Z,1.77
2023-05-19T08:04:05.951Z,1.80
2023-05-19T08:05:09.345Z,2.00
2023-05-19T08:06:11.312Z,2.20
2023-05-19T08:07:13.306Z,2.08
2023-05-19T08:08:16.918Z,2.30
2023-05-19T08:09:19.539Z,2.27
2023-05-19T08:10:21.615Z,1.90
2023-05-19T08:11:23.667Z,2.10
2023-05-19T08:12:25.782Z,1.90
2023-05-19T08:13:27.857Z,1.70
2023-05-19T08:14:29.997Z,1.80
2023-05-19T08:15:32.349Z,1.67
2023-05-19T08:16:34.862Z,1.80
2023-05-19T08:17:37.086Z,1.92
2023-05-19T08:18:39.270Z,1.88
2023-05-19T08:19:41.472Z,2.00
2023-05-19T08:20:43.610Z,2.45
2023-05-19T08:21:45.676Z,2.25
2023-05-19T08:22:47.727Z,2.20
2023-05-19T08:23:50.008Z,2.28
2023-05-19T08:24:52.164Z,1.80
2023-05-19T08:25:54.230Z,1.70
2023-05-19T08:26:56.436Z,2.13
2023-05-19T08:27:58.488Z,2.30
2023-05-19T08:29:00.640Z,1.92
2023-05-19T08:30:02.729Z,2.43
2023-05-19T08:31:04.803Z,2.17
2023-05-19T08:32:07.207Z,2.05
2023-05-19T08:33:09.315Z,2.38
2023-05-19T08:34:11.555Z,2.53
2023-05-19T08:35:13.628Z,2.47
2023-05-19T08:36:15.807Z,2.80
2023-05-19T08:37:17.965Z,2.33
2023-05-19T08:38:20.020Z,2.50
2023-05-19T08:39:26.943Z,2.13
2023-05-19T08:40:31.816Z,2.33
2023-05-19T08:41:34.080Z,2.55
2023-05-19T08:42:36.308Z,2.60
2023-05-19T08:43:39.451Z,2.10
2023-05-19T08:44:43.051Z,2.20
2023-05-19T08:45:48.287Z,2.20
2023-05-19T08:46:54.057Z,2.33
2023-05-19T08:47:57.070Z,2.22
2023-05-19T08:49:05.103Z,2.05
2023-05-19T08:50:10.858Z,2.42
2023-05-19T08:51:38.989Z,2.20
2023-05-19T08:52:47.879Z,2.25
2023-05-19T08:53:53.750Z,3.28
2023-05-19T08:55:09.748Z,2.55
2023-05-19T08:56:24.199Z,2.28
2023-05-19T08:57:27.523Z,2.20
2023-05-19T08:58:31.156Z,2.30
2023-05-19T08:59:33.855Z,2.30
2023-05-19T09:00:36.461Z,2.17
2023-05-19T09:01:40.347Z,2.30
2023-05-19T09:02:50.688Z,2.30
2023-05-19T09:04:04.340Z,2.10
2023-05-19T09:05:07.677Z,2.25
2023-05-19T09:06:13.888Z,2.10
2023-05-19T09:07:16.251Z,2.40
2023-05-19T09:08:18.704Z,2.40
2023-05-19T09:09:20.988Z,2.42
2023-05-19T09:10:23.574Z,2.20
2023-05-19T09:11:26.147Z,2.40
2023-05-19T09:12:28.653Z,2.40
2023-05-19T09:13:31.179Z,3.00
2023-05-19T09:14:33.396Z,2.53
2023-05-19T09:15:38.958Z,2.75
2023-05-19T09:16:42.003Z,2.83
2023-05-19T09:17:45.991Z,2.72
2023-05-19T09:18:58.321Z,2.80
2023-05-19T09:20:04.488Z,2.53
2023-05-19T09:21:07.280Z,2.70
2023-05-19T09:22:09.403Z,2.60
2023-05-19T09:23:16.400Z,2.40
2023-05-19T09:24:18.851Z,2.60
2023-05-19T09:25:23.704Z,2.60
2023-05-19T09:26:35.706Z,2.60
2023-05-19T09:27:38.348Z,2.63
2023-05-19T09:28:41.160Z,3.55
2023-05-19T09:29:43.966Z,2.70
2023-05-19T09:30:46.186Z,2.90
2023-05-19T09:31:50.401Z,2.70
2023-05-19T09:32:52.735Z,2.95
2023-05-19T09:33:54.823Z,2.67
2023-05-19T09:34:57.263Z,2.93
2023-05-19T09:35:59.704Z,2.80
2023-05-19T09:37:02.208Z,2.70
2023-05-19T09:38:04.317Z,2.80
2023-05-19T09:39:14.749Z,2.80
2023-05-19T09:40:17.341Z,2.88
2023-05-19T09:41:19.973Z,2.70
2023-05-19T09:42:27.129Z,2.80
2023-05-19T09:43:33.903Z,2.70
2023-05-19T09:44:36.232Z,2.90
2023-05-19T09:45:38.329Z,2.83
2023-05-19T09:46:48.959Z,3.10
2023-05-19T09:47:51.340Z,2.90
2023-05-19T09:48:58.684Z,2.72
2023-05-19T09:50:00.872Z,3.10
2023-05-19T09:51:05.392Z,3.08
2023-05-19T09:52:09.693Z,2.85
2023-05-19T09:53:14.420Z,3.35
2023-05-19T09:54:16.753Z,3.03
2023-05-19T09:55:23.242Z,3.00
2023-05-19T09:56:26.203Z,3.00
2023-05-19T09:57:33.528Z,2.97
2023-05-19T09:58:36.952Z,3.15
2023-05-19T09:59:39.672Z,3.10
2023-05-19T10:00:42.292Z,3.10
2023-05-19T10:01:46.782Z,2.90
2023-05-19T10:02:50.551Z,2.65
2023-05-19T10:03:54.099Z,2.97
2023-05-19T10:04:56.642Z,3.15
2023-05-19T10:06:01.087Z,2.80
2023-05-19T10:07:06.238Z,3.10
2023-05-19T10:08:10.593Z,2.95
2023-05-19T10:09:13.707Z,3.03
2023-05-19T10:10:16.304Z,2.95
2023-05-19T10:11:18.895Z,2.92
2023-05-19T10:12:21.517Z,2.72
2023-05-19T10:13:25.535Z,3.00
2023-05-19T10:14:29.315Z,2.85
2023-05-19T10:15:33.053Z,3.10
2023-05-19T10:16:38.954Z,2.80
2023-05-19T10:17:42.477Z,2.97
2023-05-19T10:18:44.679Z,2.90
2023-05-19T10:19:50.855Z,3.20
2023-05-19T10:20:54.019Z,2.80
2023-05-19T10:21:56.456Z,2.78
2023-05-19T10:22:58.831Z,2.90
2023-05-19T10:24:01.094Z,3.13
2023-05-19T10:25:03.679Z,2.97
2023-05-19T10:26:06.988Z,3.10
2023-05-19T10:27:12.728Z,2.75
2023-05-19T10:28:17.567Z,3.00
2023-05-19T10:29:27.375Z,3.00
2023-05-19T10:30:51.022Z,2.72
2023-05-19T10:31:55.826Z,2.88
2023-05-19T10:33:02.007Z,2.67
2023-05-19T10:34:19.392Z,2.83
2023-05-19T10:35:59.491Z,2.75
2023-05-19T10:37:13.794Z,3.00
2023-05-19T10:38:22.198Z,3.00
2023-05-19T10:39:35.666Z,3.03
2023-05-19T10:40:43.914Z,2.90
2023-05-19T10:41:52.243Z,2.80
2023-05-19T10:43:07.459Z,3.00
2023-05-19T10:44:12.776Z,3.00
2023-05-19T10:45:27.881Z,2.92
2023-05-19T10:46:30.978Z,2.78
2023-05-19T10:47:35.078Z,3.03
2023-05-19T10:48:37.396Z,3.20
2023-05-19T10:49:40.219Z,3.00
2023-05-19T10:50:45.798Z,2.83
2023-05-19T10:51:47.920Z,2.80
2023-05-19T10:52:55.918Z,2.80
2023-05-19T10:53:58.991Z,2.92
2023-05-19T10:55:02.274Z,2.70
2023-05-19T10:56:04.818Z,2.70
2023-05-19T10:57:08.361Z,2.97
2023-05-19T10:58:11.813Z,2.72
2023-05-19T10:59:33.692Z,2.70
2023-05-19T11:00:36.145Z,2.90
2023-05-19T11:01:38.446Z,2.80
2023-05-19T11:02:42.823Z,2.27
2023-05-19T11:03:53.622Z,2.55
2023-05-19T11:05:07.760Z,2.65
2023-05-19T11:06:24.722Z,2.70
2023-05-19T11:07:26.744Z,3.00
2023-05-19T11:08:35.207Z,2.50
2023-05-19T11:09:43.402Z,2.60
2023-05-19T11:10:46.553Z,2.80
2023-05-19T11:11:54.455Z,2.47
2023-05-19T11:12:58.409Z,2.50
2023-05-19T11:14:00.706Z,2.63
2023-05-19T11:15:03.808Z,2.38
2023-05-19T11:16:09.675Z,2.55
2023-05-19T11:17:22.090Z,2.67
2023-05-19T11:18:24.588Z,2.75
2023-05-19T11:19:29.847Z,2.50
2023-05-19T11:20:35.066Z,2.90
2023-05-19T11:21:49.407Z,2.63
2023-05-19T11:23:14.940Z,3.75
2023-05-19T11:24:40.955Z,3.03
2023-05-19T11:25:49.863Z,3.60
2023-05-19T11:26:55.036Z,2.70
2023-05-19T11:27:57.754Z,2.80
2023-05-19T11:29:00.615Z,2.97
2023-05-19T11:30:14.533Z,3.50
2023-05-19T11:31:16.812Z,3.25
2023-05-19T11:32:21.652Z,3.30
2023-05-19T11:33:30.247Z,3.08
2023-05-19T11:34:33.510Z,3.05
2023-05-19T11:35:36.914Z,2.95
2023-05-19T11:36:40.153Z,3.30
2023-05-19T11:37:43.084Z,3.50
2023-05-19T11:38:45.710Z,3.22
2023-05-19T11:39:48.331Z,3.10
2023-05-19T11:40:53.828Z,2.90
2023-05-19T11:41:56.083Z,2.83
2023-05-19T11:42:58.866Z,3.00
2023-05-19T11:44:01.183Z,3.30
2023-05-19T11:45:04.554Z,3.00
2023-05-19T11:46:06.846Z,2.67
2023-05-19T11:47:09.755Z,3.10
2023-05-19T11:48:13.217Z,2.80
2023-05-19T11:49:16.014Z,2.90
2023-05-19T11:50:18.811Z,3.25
2023-05-19T11:51:22.071Z,2.80
2023-05-19T11:52:25.529Z,3.10
2023-05-19T11:53:33.310Z,2.75
2023-05-19T11:54:37.328Z,2.90
2023-05-19T11:55:46.794Z,2.80
2023-05-19T11:56:49.284Z,2.90
2023-05-19T11:58:05.046Z,2.57
2023-05-19T11:59:08.405Z,2.58
2023-05-19T12:00:12.586Z,2.50
2023-05-19T12:01:14.891Z,2.85
2023-05-19T12:02:25.391Z,2.90
2023-05-19T12:03:28.871Z,2.80
2023-05-19T12:04:32.228Z,2.97
2023-05-19T12:05:41.862Z,2.60
2023-05-19T12:06:44.542Z,3.13
2023-05-19T12:07:49.699Z,2.60
2023-05-19T12:08:52.627Z,2.87
2023-05-19T12:09:55.955Z,2.80
2023-05-19T12:10:58.135Z,3.10
2023-05-19T12:12:01.554Z,2.85
2023-05-19T12:13:03.961Z,2.80
2023-05-19T12:14:06.221Z,3.20
2023-05-19T12:15:09.265Z,2.92
2023-05-19T12:16:11.651Z,2.90
2023-05-19T12:17:15.792Z,2.90
2023-05-19T12:18:18.005Z,2.70
2023-05-19T12:19:26.484Z,3.00
2023-05-19T12:20:32.598Z,2.90
2023-05-19T12:21:35.617Z,2.88
2023-05-19T12:22:38.339Z,2.90
2023-05-19T12:23:41.713Z,2.60
2023-05-19T12:24:45.098Z,2.83
2023-05-19T12:25:48.567Z,3.00
2023-05-19T12:26:50.891Z,2.83
2023-05-19T12:27:58.399Z,3.25
2023-05-19T12:29:00.620Z,2.70
2023-05-19T12:30:04.416Z,2.63
2023-05-19T12:31:06.766Z,2.78
2023-05-19T12:32:09.887Z,2.85
2023-05-19T12:33:12.805Z,3.30
2023-05-19T12:34:15.615Z,3.00
2023-05-19T12:35:19.823Z,3.08
2023-05-19T12:36:25.145Z,2.85
2023-05-19T12:37:27.928Z,2.83
2023-05-19T12:38:30.221Z,2.55
2023-05-19T12:39:32.904Z,2.50
2023-05-19T12:40:36.649Z,2.97
2023-05-19T12:41:39.080Z,3.05
2023-05-19T12:42:44.943Z,2.85
2023-05-19T12:43:47.188Z,2.65
2023-05-19T12:44:52.458Z,2.75
2023-05-19T12:45:54.824Z,2.80
2023-05-19T12:46:58.481Z,2.83
2023-05-19T12:48:04.504Z,2.80
2023-05-19T12:49:06.888Z,2.70
2023-05-19T12:50:10.716Z,2.63
2023-05-19T12:51:22.148Z,2.83
2023-05-19T12:52:24.764Z,2.67
2023-05-19T12:53:28.446Z,2.60
2023-05-19T12:54:34.472Z,2.70
2023-05-19T12:55:44.648Z,2.67
2023-05-19T12:56:51.412Z,2.70
2023-05-19T12:57:59.447Z,2.80
2023-05-19T12:59:02.168Z,2.60
2023-05-19T13:00:25.948Z,2.63
2023-05-19T13:01:29.927Z,2.60
2023-05-19T13:02:34.239Z,2.80
2023-05-19T13:03:44.021Z,2.58
2023-05-19T13:04:46.325Z,2.75
2023-05-19T13:05:50.589Z,2.50
2023-05-19T13:06:54.152Z,2.75
2023-05-19T13:07:56.900Z,2.80
2023-05-19T13:08:59.041Z,2.63
2023-05-19T13:10:01.276Z,2.55
2023-05-19T13:11:03.584Z,2.40
2023-05-19T13:12:06.600Z,2.40
2023-05-19T13:13:10.163Z,2.77
2023-05-19T13:14:12.864Z,2.58
2023-05-19T13:15:15.315Z,2.85
2023-05-19T13:16:18.588Z,2.45
2023-05-19T13:17:20.885Z,2.50
2023-05-19T13:18:23.171Z,2.90
2023-05-19T13:19:25.949Z,2.85
2023-05-19T13:20:28.817Z,2.70
2023-05-19T13:21:31.282Z,2.60
2023-05-19T13:22:33.553Z,2.65
2023-05-19T13:23:35.686Z,2.70
2023-05-19T13:24:37.816Z,2.53
2023-05-19T13:25:41.642Z,2.95
2023-05-19T13:26:43.877Z,2.90
2023-05-19T13:27:47.131Z,2.70
2023-05-19T13:28:49.318Z,2.67
2023-05-19T13:29:51.389Z,2.60
2023-05-19T13:30:53.751Z,2.60
2023-05-19T13:31:55.903Z,3.15
2023-05-19T13:32:58.275Z,2.17
2023-05-19T13:34:00.572Z,2.27
2023-05-19T13:35:03.146Z,2.83
2023-05-19T13:36:05.647Z,2.25
2023-05-19T13:37:10.056Z,2.50
2023-05-19T13:38:12.398Z,2.83
2023-05-19T13:39:14.625Z,2.58
2023-05-19T13:40:17.726Z,2.60
2023-05-19T13:41:31.798Z,2.92
2023-05-19T13:42:35.117Z,2.78
2023-05-19T13:43:37.331Z,2.40
2023-05-19T13:44:39.402Z,2.87
2023-05-19T13:45:43.265Z,2.50
2023-05-19T13:46:46.960Z,2.72
2023-05-19T13:47:50.648Z,2.55
2023-05-19T13:48:52.893Z,2.78
2023-05-19T13:49:55.118Z,2.80
2023-05-19T13:50:57.316Z,2.70
2023-05-19T13:51:59.957Z,2.50
2023-05-19T13:53:02.152Z,2.53
2023-05-19T13:54:05.157Z,2.58
2023-05-19T13:55:07.868Z,2.67
2023-05-19T13:56:10.214Z,2.47
2023-05-19T13:57:12.438Z,2.50
2023-05-19T13:58:17.020Z,2.50
2023-05-19T13:59:19.509Z,2.60
2023-05-19T14:00:21.744Z,2.40
2023-05-19T14:01:24.029Z,2.55
2023-05-19T14:02:26.170Z,2.90
2023-05-19T14:03:28.538Z,2.80
2023-05-19T14:04:31.132Z,2.40
2023-05-19T14:05:33.645Z,2.40
2023-05-19T14:06:36.845Z,2.60
2023-05-19T14:07:39.300Z,2.60
2023-05-19T14:08:42.344Z,2.38
2023-05-19T14:09:44.544Z,2.40
2023-05-19T14:10:47.317Z,2.40
2023-05-19T14:11:49.454Z,2.40
2023-05-19T14:14:00.930Z,2.70
2023-05-19T14:15:03.298Z,2.30
2023-05-19T14:16:06.098Z,2.47
2023-05-19T14:17:08.596Z,2.55
2023-05-19T14:18:11.233Z,2.55
2023-05-19T14:19:13.770Z,2.47
2023-05-19T14:20:16.007Z,2.50
2023-05-19T14:21:18.707Z,2.17
2023-05-19T14:22:21.111Z,2.53
2023-05-19T14:23:23.224Z,2.63
2023-05-19T14:24:25.405Z,2.38